Home > Products > Valid Products > MTR

000
SAUS44 KLZK 281555
MTRMWT
METAR KMWT 281553Z AUTO 00000KT 10SM CLR 28/18 A3016 RMK AO2 SLP199
T02780178





000
SAUS44 KLZK 281455
MTRMWT
METAR KMWT 281453Z AUTO VRB03KT 10SM CLR 27/17 A3015 RMK AO2 SLP196
T02670172 51018 $





000
SAUS44 KLZK 281355
MTRMWT
METAR KMWT 281353Z AUTO 00000KT 10SM CLR 26/18 A3014 RMK AO2 SLP193
T02610183 $





000
SAUS44 KLZK 281255
MTRMWT
METAR KMWT 281253Z AUTO 00000KT 10SM CLR 24/20 A3011 RMK AO2 SLP183
T02440200 $





000
SAUS44 KLZK 281207
MTRMWT
SPECI KMWT 281204Z AUTO 00000KT 5SM BR CLR 22/21 A3010 RMK AO2
T02170211 $





000
SAUS44 KLZK 281156
MTRMWT
METAR KMWT 281153Z AUTO 00000KT 2 1/2SM BR FEW120 22/21 A3009 RMK
AO2 VIS 2V3 SLP178 T02170211 10250 20217 51015 $





000
SAUS44 KLZK 281130
MTRMWT
SPECI KMWT 281128Z AUTO 00000KT 2 1/2SM BR CLR 22/21 A3009 RMK AO2
T02170211 $





000
SAUS44 KLZK 281120
MTRMWT
SPECI KMWT 281118Z AUTO 00000KT 3SM BR CLR 22/21 A3009 RMK AO2
T02170211 $





000
SAUS44 KLZK 281111
MTRMWT
SPECI KMWT 281109Z AUTO 00000KT 2 1/2SM BR CLR 22/21 A3008 RMK AO2
T02220211 $





000
SAUS44 KLZK 281103
MTRMWT
SPECI KMWT 281101Z AUTO 00000KT 1SM BR CLR 22/21 A3008 RMK AO2
T02220211 $





000
SAUS44 KLZK 281055
MTRMWT
METAR KMWT 281053Z AUTO 00000KT 3/4SM BR VV002 22/22 A3008 RMK AO2
SLP173 T02220217 $





000
SAUS44 KLZK 281053
MTRMWT
SPECI KMWT 281051Z AUTO 00000KT 1SM BR VV002 22/22 A3008 RMK AO2 $





000
SAUS44 KLZK 281033
MTRMWT
SPECI KMWT 281031Z AUTO 00000KT 4SM BR CLR 23/22 A3007 RMK AO2
T02280217 $





000
SAUS44 KLZK 281023
MTRMWT
SPECI KMWT 281021Z AUTO 00000KT 2 1/2SM BR FEW110 23/22 A3007 RMK
AO2 T02280217 $





000
SAUS44 KLZK 280955
MTRMWT
METAR KMWT 280953Z AUTO 00000KT 3SM BR FEW110 23/22 A3007 RMK AO2
SLP167 T02280222 $





000
SAUS44 KLZK 280913 COR
MTRMWT
SPECI KMWT 280909Z AUTO 00000KT 3SM BR CLR 23/23 A3005 RMK AO2
T02330228 $





000
SAUS44 KLZK 280855
MTRMWT
METAR KMWT 280853Z AUTO 00000KT 2 1/2SM BR CLR 23/23 A3005 RMK AO2
VIS 1V4 SLP160 T02330228 53008 $





000
SAUS44 KLZK 280755
MTRMWT
METAR KMWT 280753Z AUTO 00000KT 4SM BR SCT046 SCT120 24/23 A3004 RMK
AO2 SLP156 T02440233 $





000
SAUS44 KLZK 280655
MTRMWT
METAR KMWT 280653Z AUTO 00000KT 4SM BR CLR 24/24 A3003 RMK AO2
SLP153 T02440239 $





000
SAUS44 KLZK 280555
MTRMWT
METAR KMWT 280553Z AUTO 00000KT 7SM CLR 25/24 A3003 RMK AO2 SLP152
60000 T02500239 10311 20250 403560228 53005 $





000
SAUS44 KLZK 280455
MTRMWT
METAR KMWT 280453Z AUTO 00000KT 4SM BR CLR 26/24 A3001 RMK AO2
SLP146 T02560244 $





000
SAUS44 KLZK 280355
MTRMWT
METAR KMWT 280353Z AUTO 00000KT 6SM BR CLR 26/25 A3000 RMK AO2
SLP145 T02610250 $





000
SAUS44 KLZK 280255
MTRMWT
METAR KMWT 280253Z AUTO 00000KT 8SM FEW060 27/26 A3001 RMK AO2
SLP147 60000 T02670256 53006 $





000
SAUS44 KLZK 280155
MTRMWT
METAR KMWT 280153Z AUTO 00000KT 10SM FEW055 27/26 A3000 RMK AO2
RAB08E21 SLP143 P0000 T02720256 $





000
SAUS44 KLZK 280055
MTRMWT
METAR KMWT 280053Z AUTO VRB03KT 10SM FEW041 BKN049 BKN060 28/24
A2998 RMK AO2 RAB2355E12 SLP138 P0000 T02830244 $





000
SAUS44 KLZK 272355
MTRMWT
METAR KMWT 272353Z AUTO 00000KT 10SM FEW047 FEW075 SCT120 31/27
A2999 RMK AO2 SLP141 T03110272 10356 20311 53005 $





000
SAUS44 KLZK 272255
MTRMWT
METAR KMWT 272253Z AUTO 00000KT 10SM OVC045 31/27 A2998 RMK AO2
SLP140 T03110267 $





000
SAUS44 KLZK 272155
MTRMWT
METAR KMWT 272153Z AUTO VRB03KT 10SM BKN049 33/26 A2998 RMK AO2
SLP138 T03280256 $





000
SAUS44 KLZK 272055
MTRMWT
METAR KMWT 272053Z AUTO VRB04KT 10SM FEW047 36/24 A2998 RMK AO2
SLP135 T03560244 56009 $





000
SAUS44 KLZK 271955
MTRMWT
METAR KMWT 271953Z AUTO VRB05KT 10SM FEW045 34/24 A2998 RMK AO2
SLP138 T03390244 $





000
SAUS44 KLZK 271855
MTRMWT
METAR KMWT 271853Z AUTO VRB03KT 10SM CLR 34/24 A2999 RMK AO2 SLP141
T03390239 $





000
SAUS44 KLZK 271755
MTRMWT
METAR KMWT 271753Z AUTO VRB03KT 10SM CLR 33/23 A3000 RMK AO2 SLP145
T03330228 10333 20228 58005 $





000
SAUS44 KLZK 271655
MTRMWT
METAR KMWT 271653Z AUTO VRB06KT 10SM CLR 33/23 A3002 RMK AO2 SLP150
T03280233 $





000
SAUS44 KLZK 271558 COR
MTRMWT
METAR KMWT 271553Z AUTO VRB05KT 10SM CLR 31/23 A3002 RMK AO2 SLP151
T03060228 $





000
SAUS44 KLZK 271555
MTRMWT
METAR KMWT 271553Z AUTO VRB05KT 10SM CLR 31/23 A3002 RMK AO2 SLP151
T03060228 $





000
SAUS44 KLZK 271455
MTRMWT
METAR KMWT 271453Z AUTO VRB03KT 10SM CLR 29/23 A3002 RMK AO2 SLP151
T02940228 51006 $





000
SAUS44 KLZK 271355
MTRMWT
METAR KMWT 271353Z AUTO 28004KT 10SM CLR 28/23 A3002 RMK AO2 SLP151
T02780228 $





000
SAUS44 KLZK 271255
MTRMWT
METAR KMWT 271253Z AUTO 00000KT 10SM CLR 27/23 A3000 RMK AO2 SLP146
T02670228 $





000
SAUS44 KLZK 271155
MTRMWT
METAR KMWT 271153Z AUTO 00000KT 5SM BR CLR 23/22 A3000 RMK AO2
SLP145 T02280217 10239 20228 53007 $





000
SAUS44 KLZK 271055
MTRMWT
METAR KMWT 271053Z AUTO 00000KT 9SM CLR 23/22 A2998 RMK AO2 SLP139
T02330217 $





000
SAUS44 KLZK 270955
MTRMWT
METAR KMWT 270953Z AUTO 00000KT 6SM BR CLR 23/22 A2998 RMK AO2
SLP137 T02280217 $





000
SAUS44 KLZK 270855
MTRMWT
METAR KMWT 270853Z AUTO 00000KT 8SM CLR 23/22 A2998 RMK AO2 SLP138
T02330222 53001 $





000
SAUS44 KLZK 270755
MTRMWT
METAR KMWT 270753Z AUTO 00000KT 8SM CLR 24/22 A2997 RMK AO2 SLP135
T02390222 $





000
SAUS44 KLZK 270655
MTRMWT
METAR KMWT 270653Z AUTO 00000KT 4SM BR CLR 23/22 A2997 RMK AO2
SLP136 T02330222 $





000
SAUS44 KLZK 270555
MTRMWT
METAR KMWT 270553Z AUTO 00000KT 4SM BR CLR 23/22 A2997 RMK AO2
SLP136 T02330222 10306 20233 403280206 58003 $





000
SAUS44 KLZK 270505
MTRMWT
SPECI KMWT 270503Z AUTO 00000KT 3SM BR CLR 24/23 A2998 RMK AO2
T02390228 $





000
SAUS44 KLZK 270455
MTRMWT
METAR KMWT 270453Z AUTO 00000KT 2 1/2SM BR CLR 24/23 A2999 RMK AO2
SLP140 T02390228 $





000
SAUS44 KLZK 270355
MTRMWT
METAR KMWT 270353Z AUTO 00000KT 5SM BR CLR 24/23 A2999 RMK AO2
SLP142 T02390228 $





000
SAUS44 KLZK 270255
MTRMWT
METAR KMWT 270253Z AUTO 00000KT 7SM CLR 25/23 A2998 RMK AO2 SLP140
T02500233 53008 $





000
SAUS44 KLZK 270155
MTRMWT
METAR KMWT 270153Z AUTO 00000KT 9SM CLR 26/24 A2997 RMK AO2 SLP133
T02610239 $





000
SAUS44 KLZK 270055
MTRMWT
METAR KMWT 270053Z AUTO 00000KT 10SM CLR 28/24 A2995 RMK AO2 SLP130
T02830244 $





000
SAUS44 KLZK 262355
MTRMWT
METAR KMWT 262353Z AUTO 20003KT 10SM CLR 31/24 A2996 RMK AO2 SLP132
T03060239 10328 20306 56004 $





000
SAUS44 KLZK 262255
MTRMWT
METAR KMWT 262253Z AUTO VRB03KT 10SM CLR 31/23 A2996 RMK AO2 SLP132
T03110233 $





000
SAUS44 KLZK 262155
MTRMWT
METAR KMWT 262153Z AUTO VRB04KT 10SM FEW039 33/23 A2997 RMK AO2
SLP135 T03280233 $





000
SAUS44 KLZK 262055
MTRMWT
METAR KMWT 262053Z AUTO 00000KT 10SM BKN038 32/23 A2997 RMK AO2
SLP136 T03220233 57013 $





000
SAUS44 KLZK 261955
MTRMWT
METAR KMWT 261953Z AUTO VRB04KT 10SM CLR 32/23 A2998 RMK AO2 SLP139
T03220228 $





000
SAUS44 KLZK 261855
MTRMWT
METAR KMWT 261853Z AUTO 00000KT 10SM FEW036 32/23 A3000 RMK AO2
SLP144 T03220233 $





000
SAUS44 KLZK 261755
MTRMWT
METAR KMWT 261753Z AUTO VRB05KT 10SM SCT032 31/23 A3001 RMK AO2
SLP149 T03110233 10317 20217 58001 $





000
SAUS44 KLZK 261655
MTRMWT
METAR KMWT 261653Z AUTO VRB05KT 10SM CLR 31/23 A3002 RMK AO2 SLP152
T03110228 $





000
SAUS44 KLZK 261555
MTRMWT
METAR KMWT 261553Z AUTO VRB05KT 10SM CLR 30/23 A3001 RMK AO2 SLP151
T03000228 $





000
SAUS44 KLZK 261455
MTRMWT
METAR KMWT 261453Z AUTO VRB04KT 10SM CLR 29/22 A3001 RMK AO2 SLP150
T02890222 51005 $





000
SAUS44 KLZK 261355
MTRMWT
METAR KMWT 261353Z AUTO VRB03KT 9SM CLR 28/23 A3001 RMK AO2 SLP149
T02780228 $





000
SAUS44 KLZK 261302
MTRMWT
SPECI KMWT 261300Z AUTO 00000KT 4SM BR CLR 24/23 A3001 RMK AO2
T02440228 $





000
SAUS44 KLZK 261255
MTRMWT
METAR KMWT 261253Z AUTO 00000KT 2 1/2SM BR CLR 24/23 A3001 RMK AO2
SLP149 T02440228 $





000
SAUS44 KLZK 261242
MTRMWT
SPECI KMWT 261240Z AUTO 00000KT 1 3/4SM BR CLR 23/22 A3000 RMK AO2
T02280222 $





000
SAUS44 KLZK 261235
MTRMWT
SPECI KMWT 261233Z AUTO 00000KT 2SM BR CLR 23/22 A3000 RMK AO2
T02280217 $





000
SAUS44 KLZK 261220
MTRMWT
SPECI KMWT 261218Z AUTO 00000KT 3SM BR CLR 22/21 A3000 RMK AO2
T02220211 $





000
SAUS44 KLZK 261155
MTRMWT
METAR KMWT 261153Z AUTO 00000KT 1 1/4SM BR CLR 22/21 A3000 RMK AO2
SLP146 T02170206 10222 20206 53012 $





000
SAUS44 KLZK 261144
MTRMWT
SPECI KMWT 261142Z AUTO 00000KT 1 1/4SM BR CLR 22/21 A3000 RMK AO2
T02170211 $





000
SAUS44 KLZK 261139 COR
MTRMWT
SPECI KMWT 261135Z AUTO 00000KT 2SM BR CLR 21/21 A3000 RMK AO2
T02110206 $





000
SAUS44 KLZK 261055
MTRMWT
METAR KMWT 261053Z AUTO 00000KT 1 1/2SM BR CLR 21/20 A2999 RMK AO2
SLP143 T02060200 $





000
SAUS44 KLZK 261046
MTRMWT
SPECI KMWT 261044Z AUTO 00000KT 1 3/4SM BR CLR 21/20 A2999 RMK AO2
T02060200 $





000
SAUS44 KLZK 261039
MTRMWT
SPECI KMWT 261037Z AUTO 00000KT 2SM BR CLR 21/20 A2998 RMK AO2
T02060200 $





000
SAUS44 KLZK 260955
MTRMWT
METAR KMWT 260953Z AUTO 00000KT 1 3/4SM BR CLR 21/20 A2997 RMK AO2
SLP137 T02060200 $





000
SAUS44 KLZK 260855
MTRMWT
METAR KMWT 260853Z AUTO 00000KT 1 1/4SM BR CLR 21/21 A2996 RMK AO2
SLP135 T02110206 55000





000
SAUS44 KLZK 260835
MTRMWT
SPECI KMWT 260833Z AUTO 00000KT 1 1/4SM BR CLR 22/21 A2996 RMK AO2
T02170206





000
SAUS44 KLZK 260824
MTRMWT
SPECI KMWT 260822Z AUTO 00000KT 1/2SM FG CLR 22/21 A2996 RMK AO2
T02170211





000
SAUS44 KLZK 260755
MTRMWT
METAR KMWT 260753Z AUTO 00000KT 1SM BR CLR 22/21 A2996 RMK AO2
SLP132 T02170211





000
SAUS44 KLZK 260655
MTRMWT
METAR KMWT 260653Z AUTO 00000KT 1 1/2SM BR CLR 22/21 A2997 RMK AO2
SLP135 T02170211





000
SAUS44 KLZK 260555
MTRMWT
METAR KMWT 260553Z AUTO 00000KT 1 1/4SM BR CLR 22/21 A2997 RMK AO2
SLP135 T02220211 10289 20222 403060206 50001





000
SAUS44 KLZK 260455
MTRMWT
METAR KMWT 260453Z AUTO 00000KT 1 1/2SM BR CLR 22/22 A2997 RMK AO2
SLP139 T02220217





000
SAUS44 KLZK 260436
MTRMWT
SPECI KMWT 260434Z AUTO 00000KT 1 3/4SM BR CLR 23/22 A2997 RMK AO2
T02280217





000
SAUS44 KLZK 260427
MTRMWT
SPECI KMWT 260425Z AUTO 00000KT 2SM BR CLR 23/22 A2997 RMK AO2
T02280217





000
SAUS44 KLZK 260355
MTRMWT
METAR KMWT 260353Z AUTO 00000KT 1 3/4SM BR CLR 23/22 A2997 RMK AO2
SLP138 T02280222





000
SAUS44 KLZK 260304
MTRMWT
SPECI KMWT 260302Z AUTO 00000KT 2 1/2SM BR CLR 23/22 A2996 RMK AO2
T02330222





000
SAUS44 KLZK 260255
MTRMWT
METAR KMWT 260253Z AUTO 00000KT 3SM BR CLR 24/23 A2996 RMK AO2
SLP135 T02390228 56002





000
SAUS44 KLZK 260155
MTRMWT
METAR KMWT 260153Z AUTO 00000KT 5SM BR CLR 25/23 A2996 RMK AO2
SLP135 T02500228





000
SAUS44 KLZK 260055
MTRMWT
METAR KMWT 260053Z AUTO 00000KT 6SM HZ CLR 27/23 A2996 RMK AO2
SLP134 T02670233





000
SAUS44 KLZK 252355
MTRMWT
METAR KMWT 252353Z AUTO VRB03KT 7SM CLR 29/23 A2997 RMK AO2 SLP135
T02890228 10306 20278 56006





000
SAUS44 KLZK 252255
MTRMWT
METAR KMWT 252253Z AUTO VRB03KT 7SM FEW033 30/23 A2997 RMK AO2
SLP137 T03000228





000
SAUS44 KLZK 252155
MTRMWT
METAR KMWT 252153Z AUTO 00000KT 7SM CLR 31/22 A2997 RMK AO2 SLP137
T03060222





000
SAUS44 KLZK 252055
MTRMWT
METAR KMWT 252053Z AUTO VRB03KT 6SM HZ FEW034 29/22 A2998 RMK AO2
SLP142 T02940217 57012





000
SAUS44 KLZK 251955
MTRMWT
METAR KMWT 251953Z AUTO VRB04KT 6SM HZ SCT033 30/23 A3000 RMK AO2
SLP146 T03000228





000
SAUS44 KLZK 251855
MTRMWT
METAR KMWT 251853Z AUTO VRB03KT 10SM SCT030 29/22 A3001 RMK AO2
SLP148 T02890222





000
SAUS44 KLZK 251810
MTRMWT
SPECI KMWT 251808Z AUTO 27005KT 10SM BKN030 28/22 A3002 RMK AO2
T02830217





000
SAUS44 KLZK 251755
MTRMWT
METAR KMWT 251753Z AUTO VRB03KT 10SM BKN029 28/21 A3002 RMK AO2
SLP154 T02780211 10283 20206 56011





000
SAUS44 KLZK 251752
MTRMWT
SPECI KMWT 251750Z AUTO VRB05KT 10SM BKN029 28/21 A3002 RMK AO2





000
SAUS44 KLZK 251741
MTRMWT
SPECI KMWT 251739Z AUTO 00000KT 10SM FEW025 BKN030 28/22 A3003 RMK
AO2 T02830217





000
SAUS44 KLZK 251655
MTRMWT
METAR KMWT 251653Z AUTO 24003KT 10SM BKN024 27/21 A3004 RMK AO2
SLP160 T02670211





000
SAUS44 KLZK 251639
MTRMWT
SPECI KMWT 251637Z AUTO 26006KT 10SM BKN024 27/21 A3004 RMK AO2
T02670206





    US Dept of Commerce
    National Oceanic and Atmospheric Administration
    National Weather Service
    1325 East West Highway
    Silver Spring, MD 20910
    Page Author: NWS Internet Services Team
Disclaimer
Information Quality
Credits
Glossary
Privacy Policy
Freedom of Information Act (FOIA)
About Us
Career Opportunities